Предлагаем Вашему вниманию английскую версию страницы: AUTOTAF.ME UNKY - aviation weather forecast Kyzyl

AUTOTAF UNKY - авиапрогноз Кызыл

Сегодня рассвет 00:54 UTC, восход солнца 01:32 UTC,
местный полдень 05:54 UTC, заход солнца 10:16 UTC,
наступление темноты 10:54 UTC.

Краткий прогноз UNKY на 9 часов

AUTOTAF.ME UNKY 240500Z 2406/2415 VRB02MPS 3500 VCSH BKN006 BKN010CB   
   TEMPO 2406/2410 1500  
  BECMG 2407/2409 9999  
  FM241200 VRB02MPS 0450 VCSH FG IC BKN002 OVC010CB

Детальный прогноз UNKY на 24 часа

AUTOTAF.ME UNKY 240500Z 2406/2506 VRB02MPS 3500 VCSH BKN006 BKN010CB TXM16/2409Z TNM22/2500Z 
   TEMPO 2406/2410 1500  
  BECMG 2407/2409 9999  
  FM241200 VRB02MPS 0450 VCSH FG IC BKN002 OVC010CB  
  BECMG 2416/2418 0500  
  BECMG 2419/2421  FG IC  
  FM250000 VRB02MPS 0450 VCSH FG IC BKN002 BKN010CB 
  FM250300 VRB02MPS 9999 -SHSN BKN007 OVC010CB
   TEMPO 2501/2507 1500  
  FM250600 29003MPS 9999 VCSH BKN007 OVC010CB

Подробный табличный прогноз

Время (UTC) miniAUTOTAF на 3 ч WX FZLVL
M AGL
ICE TURB Т
(°С)
Тd
(°С)
f(%) QNH
(гПа)
WIND/T
03 VRB02MPS 1000 VCSH BR BKN003 BKN010CB VCSH BR SFC MOD FL40/FL110 -21 -23 80 1032 ...
06 VRB02MPS 3500 VCSH BKN006 BKN010CB TEMPO 1500 VCSH SFC MOD FL40/FL50 -18 -20 79 1030 ...
09 VRB02MPS 9999 VCSH BKN006 OVC010CB TEMPO 1500 VCSH SFC MOD FL40/FL50 -16 -19 81 1030 ...
12 VRB02MPS 0450 VCSH FG IC BKN002 OVC010CB VCSH FG IC SFC MOD FL40/FL50 -19 -21 83 1032 ...
15 VRB02MPS 0450 VCSH FG IC BKN002 BKN010CB VCSH FG IC SFC MOD FL40/FL50 -19 -22 81 1032 ...


Широта 51.66943°, долгота 94.40053°, высота 653 м абс.
Средняя высота рельефа местности 834 м абс.
Прогнозы обновляются четыре раза в сутки: в 02, 08, 14, 20 ч всемирного времени.


Выбрать прогноз по другой модели Кызыл
Онлайн-сводка гроз по Кызыл (для РФ и ближнего зарубежья)
Карта фактических гроз в окрестностях Кызыл
Динамические прогностические карты (ventusky.com)
Прогностическая карта высоты нижней границы облаков по Кызыл (windy.com)
Выбрать другой город

Прогноз предназначен для личного научно-познавательного использования частными лицами
и не предназначен для принятия важных решений и выполнения реальных полётов воздушных судов

При копировании или ином использовании любых материалов данного сайта ссылка на © meteocenter.asia обязательна.

0.49/0.8